Terminal Aerodrome Forecast
Issued by NWS

Home | Current Version | Previous Version | Graphics & Text | Print | Product List | Glossary On
Versions: 1 2 3 4 5 6 7 8 9 10 11
000
FTUS43 KMPX 261100
TAFRWF
TAF
KRWF 261125Z 2612/2712 35011KT P6SM BKN009 OVC012
     FM261700 35010KT P6SM OVC018
     FM270200 34009KT 4SM -SN BR SCT008 OVC015
     FM270400 34009KT 2SM -SN BR VV009=

USA.gov is the U.S. government's official web portal to all federal, state and local government web resources and services.